Terminal Aerodrome Forecast
Issued by NWS Duluth, MN

Home | Current Version | Previous Version | Graphics & Text | Print | Product List | Glossary On
Versions: 1 2 3 4 5 6 7 8 9 10 11 12 13 14 15 16 17 18 19 20 21 22 23 24
596
FTUS43 KDLH 262328
TAFDLH
TAF
KDLH 262328Z 2700/2724 30009KT P6SM SCT060
     FM270200 33003KT P6SM SKC
     FM271200 03004KT P6SM SCT250
     FM271500 06005KT P6SM SCT050
     FM272100 08006KT P6SM VCSH BKN050=

USA.gov is the U.S. government's official web portal to all federal, state and local government web resources and services.